WAXY62 LKPR-EDDH
Flight info
| Callsign | WAXY62 |
|---|---|
| Flight time | 0h 49m |
| Altitude | 32000 |
| Route | VENOX DCT DEKOV/N0483F360 Y621 ESLOR M748 BOLBO DCT SOGMA M748 RARUP RARUP3P |
| Aircraft | C700/M-SBDGHM1RWXY/LB2 |
Departure
| Time | 2026-04-22 17:01 |
|---|---|
| Airport | Václav Havel Airport Prague (LKPR) |
Arrival
| Time | 2026-04-22 17:51 |
|---|---|
| Airport | Hamburg Helmut Schmidt Airport (EDDH) |
| Time | Latitude | Longitude | Altitude | Speed | Heading |
|---|---|---|---|---|---|
| 2026-04-22 16:49 | 50.10592 | 14.26272 | 1179 ft | 0 kts | 28° |
| 2026-04-22 16:49 | 50.10581 | 14.26264 | 1177 ft | 3 kts | 28° |
| 2026-04-22 16:50 | 50.10563 | 14.26249 | 1178 ft | 3 kts | 42° |
| 2026-04-22 16:50 | 50.10549 | 14.26248 | 1180 ft | 3 kts | 340° |
| 2026-04-22 16:50 | 50.10542 | 14.26253 | 1178 ft | 0 kts | 310° |
| 2026-04-22 16:50 | 50.10543 | 14.26252 | 1181 ft | 2 kts | 310° |
| 2026-04-22 16:51 | 50.10550 | 14.26224 | 1179 ft | 8 kts | 270° |
| 2026-04-22 16:51 | 50.10538 | 14.26140 | 1182 ft | 8 kts | 259° |
| 2026-04-22 16:51 | 50.10528 | 14.26049 | 1182 ft | 9 kts | 260° |
| 2026-04-22 16:51 | 50.10516 | 14.25935 | 1177 ft | 13 kts | 262° |
| 2026-04-22 16:52 | 50.10496 | 14.25782 | 1176 ft | 16 kts | 259° |
| 2026-04-22 16:52 | 50.10474 | 14.25606 | 1172 ft | 18 kts | 259° |
| 2026-04-22 16:52 | 50.10466 | 14.25523 | 1174 ft | 0 kts | 263° |
| 2026-04-22 16:53 | 50.10462 | 14.25485 | 1173 ft | 14 kts | 260° |
| 2026-04-22 16:53 | 50.10434 | 14.25312 | 1168 ft | 18 kts | 260° |
| 2026-04-22 16:53 | 50.10410 | 14.25110 | 1166 ft | 19 kts | 256° |
| 2026-04-22 16:53 | 50.10392 | 14.24914 | 1169 ft | 17 kts | 264° |
| 2026-04-22 16:54 | 50.10372 | 14.24738 | 1167 ft | 16 kts | 228° |
| 2026-04-22 16:54 | 50.10349 | 14.24620 | 1168 ft | 12 kts | 261° |
| 2026-04-22 16:54 | 50.10337 | 14.24491 | 1170 ft | 0 kts | 258° |
| 2026-04-22 16:55 | 50.10330 | 14.24442 | 1169 ft | 9 kts | 257° |
| 2026-04-22 16:55 | 50.10315 | 14.24318 | 1173 ft | 12 kts | 261° |
| 2026-04-22 16:56 | 50.10292 | 14.24195 | 1175 ft | 12 kts | 256° |
| 2026-04-22 16:56 | 50.10282 | 14.24060 | 1178 ft | 13 kts | 265° |
| 2026-04-22 16:56 | 50.10269 | 14.23926 | 1177 ft | 12 kts | 259° |
| 2026-04-22 16:56 | 50.10250 | 14.23775 | 1183 ft | 14 kts | 250° |
| 2026-04-22 16:57 | 50.10225 | 14.23634 | 1187 ft | 13 kts | 257° |
| 2026-04-22 16:57 | 50.10206 | 14.23478 | 1190 ft | 15 kts | 260° |
| 2026-04-22 16:57 | 50.10168 | 14.23327 | 1193 ft | 15 kts | 245° |
| 2026-04-22 16:57 | 50.10131 | 14.23193 | 1198 ft | 12 kts | 248° |
| 2026-04-22 16:58 | 50.10106 | 14.23109 | 1200 ft | 15 kts | 243° |
| 2026-04-22 16:58 | 50.10049 | 14.22900 | 1203 ft | 16 kts | 250° |
| 2026-04-22 16:58 | 50.10064 | 14.22764 | 1203 ft | 0 kts | 313° |
| 2026-04-22 16:58 | 50.10068 | 14.22756 | 1203 ft | 8 kts | 313° |
| 2026-04-22 16:59 | 50.10101 | 14.22727 | 1203 ft | 0 kts | 344° |
| 2026-04-22 16:59 | 50.10132 | 14.22713 | 1203 ft | 8 kts | 346° |
| 2026-04-22 16:59 | 50.10211 | 14.22743 | 1202 ft | 15 kts | 44° |
| 2026-04-22 16:59 | 50.10234 | 14.22796 | 1201 ft | 0 kts | 62° |
| 2026-04-22 17:00 | 50.10236 | 14.22802 | 1201 ft | 9 kts | 62° |
| 2026-04-22 17:01 | 50.10410 | 14.23362 | 1184 ft | 105 kts | 65° |
| 2026-04-22 17:01 | 50.10845 | 14.24777 | 1265 ft | 175 kts | 61° |
| 2026-04-22 17:01 | 50.11379 | 14.26709 | 1866 ft | 218 kts | 65° |
| 2026-04-22 17:01 | 50.12019 | 14.29163 | 2511 ft | 271 kts | 64° |
| 2026-04-22 17:02 | 50.12836 | 14.31922 | 3118 ft | 272 kts | 60° |
| 2026-04-22 17:02 | 50.13681 | 14.34489 | 3706 ft | 263 kts | 60° |
| 2026-04-22 17:02 | 50.14452 | 14.36999 | 4267 ft | 256 kts | 62° |
| 2026-04-22 17:02 | 50.15203 | 14.39543 | 4805 ft | 257 kts | 62° |
| 2026-04-22 17:03 | 50.16150 | 14.41942 | 4973 ft | 262 kts | 47° |
| 2026-04-22 17:03 | 50.17436 | 14.43788 | 5357 ft | 245 kts | 34° |
| 2026-04-22 17:03 | 50.18947 | 14.45117 | 5876 ft | 250 kts | 21° |
| 2026-04-22 17:03 | 50.20636 | 14.45840 | 6415 ft | 256 kts | 9° |
| 2026-04-22 17:04 | 50.22409 | 14.45899 | 6923 ft | 256 kts | 355° |
| 2026-04-22 17:04 | 50.24163 | 14.45264 | 7424 ft | 262 kts | 342° |
| 2026-04-22 17:04 | 50.25775 | 14.43954 | 7928 ft | 262 kts | 329° |
| 2026-04-22 17:04 | 50.27308 | 14.42350 | 8450 ft | 266 kts | 329° |
| 2026-04-22 17:05 | 50.28857 | 14.40764 | 8974 ft | 268 kts | 330° |
| 2026-04-22 17:05 | 50.30426 | 14.39174 | 9502 ft | 268 kts | 330° |
| 2026-04-22 17:05 | 50.32004 | 14.37565 | 10056 ft | 273 kts | 330° |
| 2026-04-22 17:05 | 50.33590 | 14.35937 | 10562 ft | 273 kts | 330° |
| 2026-04-22 17:06 | 50.35187 | 14.34301 | 11058 ft | 275 kts | 330° |
| 2026-04-22 17:06 | 50.36796 | 14.32656 | 11561 ft | 277 kts | 330° |
| 2026-04-22 17:06 | 50.38414 | 14.30995 | 12074 ft | 279 kts | 330° |
| 2026-04-22 17:06 | 50.40048 | 14.29320 | 12595 ft | 282 kts | 330° |
| 2026-04-22 17:07 | 50.41704 | 14.27620 | 13112 ft | 286 kts | 330° |
| 2026-04-22 17:07 | 50.43376 | 14.25901 | 13654 ft | 289 kts | 330° |
| 2026-04-22 17:07 | 50.45042 | 14.24189 | 14177 ft | 291 kts | 330° |
| 2026-04-22 17:07 | 50.46740 | 14.22440 | 14667 ft | 293 kts | 331° |
| 2026-04-22 17:08 | 50.48453 | 14.20677 | 15154 ft | 295 kts | 331° |
| 2026-04-22 17:08 | 50.50225 | 14.18852 | 15257 ft | 301 kts | 331° |
| 2026-04-22 17:08 | 50.51929 | 14.17087 | 15258 ft | 296 kts | 331° |
| 2026-04-22 17:08 | 50.53733 | 14.15459 | 15253 ft | 294 kts | 340° |
| 2026-04-22 17:09 | 50.55610 | 14.14512 | 15763 ft | 285 kts | 351° |
| 2026-04-22 17:09 | 50.57636 | 14.14122 | 16525 ft | 294 kts | 2° |
| 2026-04-22 17:09 | 50.59678 | 14.14382 | 17317 ft | 304 kts | 11° |
| 2026-04-22 17:09 | 50.61850 | 14.14932 | 18143 ft | 329 kts | 11° |
| 2026-04-22 17:10 | 50.64171 | 14.15482 | 18921 ft | 340 kts | 11° |
| 2026-04-22 17:10 | 50.66545 | 14.15500 | 19642 ft | 351 kts | 352° |
| 2026-04-22 17:10 | 50.68830 | 14.13919 | 20391 ft | 368 kts | 332° |
| 2026-04-22 17:10 | 50.70944 | 14.11576 | 21452 ft | 378 kts | 327° |
| 2026-04-22 17:11 | 50.73103 | 14.09063 | 22276 ft | 388 kts | 328° |
| 2026-04-22 17:11 | 50.75301 | 14.06635 | 23104 ft | 387 kts | 330° |
| 2026-04-22 17:11 | 50.77566 | 14.04220 | 23937 ft | 398 kts | 330° |
| 2026-04-22 17:11 | 50.79846 | 14.01720 | 24657 ft | 399 kts | 329° |
| 2026-04-22 17:12 | 50.82131 | 13.99157 | 25398 ft | 407 kts | 329° |
| 2026-04-22 17:12 | 50.84448 | 13.96586 | 26143 ft | 414 kts | 330° |
| 2026-04-22 17:12 | 50.86821 | 13.93981 | 26918 ft | 418 kts | 330° |
| 2026-04-22 17:12 | 50.89235 | 13.91322 | 27718 ft | 425 kts | 330° |
| 2026-04-22 17:13 | 50.91670 | 13.88611 | 28540 ft | 431 kts | 330° |
| 2026-04-22 17:13 | 50.94137 | 13.85863 | 29377 ft | 435 kts | 330° |
| 2026-04-22 17:13 | 50.96624 | 13.83102 | 30244 ft | 438 kts | 331° |
| 2026-04-22 17:13 | 50.99121 | 13.80329 | 30990 ft | 439 kts | 330° |
| 2026-04-22 17:14 | 51.01624 | 13.77538 | 31742 ft | 438 kts | 330° |
| 2026-04-22 17:14 | 51.04052 | 13.74814 | 32255 ft | 423 kts | 330° |
| 2026-04-22 17:14 | 51.06523 | 13.72067 | 32259 ft | 442 kts | 330° |
| 2026-04-22 17:14 | 51.09088 | 13.69216 | 32258 ft | 458 kts | 329° |
| 2026-04-22 17:15 | 51.14438 | 13.63190 | 32261 ft | 475 kts | 329° |
| 2026-04-22 17:15 | 51.19818 | 13.57147 | 32268 ft | 476 kts | 329° |
| 2026-04-22 17:16 | 51.25165 | 13.51110 | 32261 ft | 472 kts | 329° |
| 2026-04-22 17:16 | 51.30556 | 13.45018 | 32259 ft | 476 kts | 329° |
| 2026-04-22 17:17 | 51.35938 | 13.38905 | 32260 ft | 472 kts | 329° |
| 2026-04-22 17:17 | 51.41320 | 13.32788 | 32262 ft | 476 kts | 329° |
| 2026-04-22 17:18 | 51.46718 | 13.26621 | 32262 ft | 474 kts | 329° |
| 2026-04-22 17:18 | 51.52078 | 13.20491 | 32263 ft | 473 kts | 329° |
| 2026-04-22 17:19 | 51.62847 | 13.08106 | 32261 ft | 475 kts | 329° |
| 2026-04-22 17:20 | 51.73527 | 12.95755 | 32260 ft | 473 kts | 329° |
| 2026-04-22 17:21 | 51.81562 | 12.86415 | 32263 ft | 476 kts | 329° |
| 2026-04-22 17:22 | 51.89582 | 12.77044 | 32278 ft | 474 kts | 329° |
| 2026-04-22 17:23 | 51.97629 | 12.67608 | 32282 ft | 477 kts | 329° |
| 2026-04-22 17:23 | 52.05692 | 12.58106 | 32280 ft | 478 kts | 329° |
| 2026-04-22 17:24 | 52.11070 | 12.51743 | 32278 ft | 477 kts | 329° |
| 2026-04-22 17:24 | 52.16443 | 12.45368 | 32277 ft | 478 kts | 329° |
| 2026-04-22 17:25 | 52.21814 | 12.38976 | 32280 ft | 478 kts | 329° |
| 2026-04-22 17:25 | 52.27147 | 12.32609 | 32283 ft | 478 kts | 329° |
| 2026-04-22 17:26 | 52.32521 | 12.26173 | 32288 ft | 479 kts | 329° |
| 2026-04-22 17:26 | 52.37889 | 12.19725 | 32287 ft | 479 kts | 329° |
| 2026-04-22 17:27 | 52.43259 | 12.13255 | 32285 ft | 479 kts | 329° |
| 2026-04-22 17:27 | 52.48630 | 12.06764 | 32282 ft | 480 kts | 329° |
| 2026-04-22 17:28 | 52.54009 | 12.00241 | 32286 ft | 480 kts | 329° |
| 2026-04-22 17:28 | 52.59389 | 11.93700 | 32213 ft | 483 kts | 328° |
| 2026-04-22 17:29 | 52.62086 | 11.90411 | 31562 ft | 475 kts | 328° |
| 2026-04-22 17:29 | 52.64706 | 11.87201 | 30854 ft | 468 kts | 328° |
| 2026-04-22 17:29 | 52.67311 | 11.84023 | 30066 ft | 462 kts | 328° |
| 2026-04-22 17:29 | 52.69865 | 11.80898 | 29207 ft | 453 kts | 328° |
| 2026-04-22 17:30 | 52.72377 | 11.77815 | 28373 ft | 449 kts | 328° |
| 2026-04-22 17:30 | 52.74873 | 11.74751 | 27550 ft | 444 kts | 328° |
| 2026-04-22 17:30 | 52.77329 | 11.71728 | 26763 ft | 438 kts | 328° |
| 2026-04-22 17:30 | 52.79760 | 11.68735 | 25994 ft | 433 kts | 328° |
| 2026-04-22 17:31 | 52.82137 | 11.65822 | 25258 ft | 427 kts | 328° |
| 2026-04-22 17:31 | 52.84501 | 11.62894 | 24522 ft | 422 kts | 327° |
| 2026-04-22 17:31 | 52.86793 | 11.59972 | 24302 ft | 413 kts | 326° |
| 2026-04-22 17:31 | 52.89118 | 11.57024 | 24301 ft | 422 kts | 327° |
| 2026-04-22 17:32 | 52.91436 | 11.54119 | 24296 ft | 419 kts | 327° |
| 2026-04-22 17:32 | 52.93775 | 11.51185 | 24288 ft | 420 kts | 327° |
| 2026-04-22 17:32 | 52.96104 | 11.48232 | 23948 ft | 421 kts | 326° |
| 2026-04-22 17:32 | 52.98405 | 11.45302 | 23540 ft | 414 kts | 326° |
| 2026-04-22 17:33 | 52.99944 | 11.43352 | 23253 ft | 407 kts | 326° |
| 2026-04-22 17:33 | 53.02866 | 11.39651 | 22695 ft | 394 kts | 326° |
| 2026-04-22 17:33 | 53.05038 | 11.36894 | 22279 ft | 388 kts | 326° |
| 2026-04-22 17:33 | 53.07153 | 11.34199 | 21764 ft | 379 kts | 326° |
| 2026-04-22 17:34 | 53.09224 | 11.31557 | 21241 ft | 371 kts | 326° |
| 2026-04-22 17:34 | 53.11262 | 11.28959 | 20714 ft | 366 kts | 326° |
| 2026-04-22 17:34 | 53.13275 | 11.26392 | 20202 ft | 364 kts | 326° |
| 2026-04-22 17:34 | 53.15279 | 11.23830 | 19705 ft | 362 kts | 326° |
| 2026-04-22 17:35 | 53.17268 | 11.21279 | 19214 ft | 359 kts | 326° |
| 2026-04-22 17:35 | 53.19237 | 11.18751 | 18729 ft | 355 kts | 326° |
| 2026-04-22 17:35 | 53.21187 | 11.16251 | 18203 ft | 352 kts | 326° |
| 2026-04-22 17:35 | 53.23092 | 11.13806 | 17558 ft | 348 kts | 325° |
| 2026-04-22 17:36 | 53.24985 | 11.11373 | 17032 ft | 339 kts | 324° |
| 2026-04-22 17:36 | 53.26836 | 11.08986 | 16506 ft | 333 kts | 324° |
| 2026-04-22 17:36 | 53.28661 | 11.06629 | 15998 ft | 331 kts | 324° |
| 2026-04-22 17:36 | 53.30484 | 11.04276 | 15494 ft | 330 kts | 324° |
| 2026-04-22 17:37 | 53.32300 | 11.01934 | 14999 ft | 329 kts | 324° |
| 2026-04-22 17:37 | 53.34103 | 10.99598 | 14512 ft | 327 kts | 324° |
| 2026-04-22 17:37 | 53.35889 | 10.97280 | 14027 ft | 323 kts | 324° |
| 2026-04-22 17:37 | 53.37659 | 10.94987 | 13486 ft | 320 kts | 324° |
| 2026-04-22 17:38 | 53.39415 | 10.92712 | 12959 ft | 317 kts | 324° |
| 2026-04-22 17:38 | 53.41150 | 10.90459 | 12440 ft | 314 kts | 324° |
| 2026-04-22 17:38 | 53.42865 | 10.88227 | 11928 ft | 310 kts | 324° |
| 2026-04-22 17:38 | 53.44557 | 10.86022 | 11420 ft | 306 kts | 324° |
| 2026-04-22 17:39 | 53.46230 | 10.83839 | 10928 ft | 303 kts | 324° |
| 2026-04-22 17:39 | 53.47886 | 10.81681 | 10435 ft | 300 kts | 324° |
| 2026-04-22 17:39 | 53.51152 | 10.77413 | 9400 ft | 295 kts | 324° |
| 2026-04-22 17:40 | 53.52761 | 10.75309 | 8876 ft | 292 kts | 323° |
| 2026-04-22 17:40 | 53.54364 | 10.73206 | 8355 ft | 291 kts | 323° |
| 2026-04-22 17:40 | 53.55924 | 10.71159 | 7863 ft | 282 kts | 323° |
| 2026-04-22 17:40 | 53.57423 | 10.69196 | 7364 ft | 265 kts | 323° |
| 2026-04-22 17:41 | 53.58863 | 10.67303 | 6860 ft | 253 kts | 323° |
| 2026-04-22 17:41 | 53.60213 | 10.65528 | 6286 ft | 247 kts | 323° |
| 2026-04-22 17:41 | 53.61554 | 10.63768 | 5689 ft | 242 kts | 323° |
| 2026-04-22 17:41 | 53.62876 | 10.62027 | 5103 ft | 239 kts | 323° |
| 2026-04-22 17:42 | 53.64219 | 10.60416 | 4498 ft | 235 kts | 330° |
| 2026-04-22 17:42 | 53.65651 | 10.59126 | 3916 ft | 233 kts | 333° |
| 2026-04-22 17:42 | 53.66617 | 10.58325 | 3526 ft | 234 kts | 334° |
| 2026-04-22 17:42 | 53.68564 | 10.56765 | 2955 ft | 223 kts | 334° |
| 2026-04-22 17:43 | 53.69911 | 10.55702 | 2942 ft | 209 kts | 334° |
| 2026-04-22 17:43 | 53.71246 | 10.54642 | 2951 ft | 215 kts | 334° |
| 2026-04-22 17:43 | 53.72544 | 10.53366 | 2942 ft | 216 kts | 316° |
| 2026-04-22 17:43 | 53.73285 | 10.51204 | 2946 ft | 215 kts | 290° |
| 2026-04-22 17:44 | 53.73664 | 10.48742 | 2958 ft | 219 kts | 285° |
| 2026-04-22 17:44 | 53.73998 | 10.46216 | 2947 ft | 216 kts | 284° |
| 2026-04-22 17:44 | 53.74301 | 10.43846 | 2949 ft | 199 kts | 284° |
| 2026-04-22 17:44 | 53.74578 | 10.41644 | 2950 ft | 193 kts | 284° |
| 2026-04-22 17:45 | 53.74853 | 10.39419 | 2947 ft | 193 kts | 284° |
| 2026-04-22 17:45 | 53.75130 | 10.37201 | 2952 ft | 193 kts | 284° |
| 2026-04-22 17:45 | 53.75405 | 10.34991 | 2950 ft | 190 kts | 284° |
| 2026-04-22 17:45 | 53.75510 | 10.32755 | 2963 ft | 194 kts | 268° |
| 2026-04-22 17:46 | 53.75331 | 10.30471 | 2978 ft | 196 kts | 264° |
| 2026-04-22 17:46 | 53.75121 | 10.28202 | 2982 ft | 196 kts | 264° |
| 2026-04-22 17:46 | 53.74978 | 10.26695 | 2981 ft | 196 kts | 264° |
| 2026-04-22 17:46 | 53.74761 | 10.24415 | 2989 ft | 196 kts | 264° |
| 2026-04-22 17:47 | 53.74394 | 10.22194 | 2980 ft | 200 kts | 246° |
| 2026-04-22 17:47 | 53.73593 | 10.20279 | 2986 ft | 199 kts | 234° |
| 2026-04-22 17:47 | 53.72726 | 10.18490 | 2926 ft | 199 kts | 234° |
| 2026-04-22 17:47 | 53.71827 | 10.16689 | 2663 ft | 197 kts | 233° |
| 2026-04-22 17:48 | 53.70961 | 10.14909 | 2392 ft | 195 kts | 234° |
| 2026-04-22 17:48 | 53.70093 | 10.13141 | 2136 ft | 197 kts | 233° |
| 2026-04-22 17:48 | 53.69225 | 10.11389 | 1855 ft | 191 kts | 234° |
| 2026-04-22 17:48 | 53.68430 | 10.09767 | 1648 ft | 166 kts | 234° |
| 2026-04-22 17:49 | 53.67729 | 10.08342 | 1418 ft | 157 kts | 236° |
| 2026-04-22 17:49 | 53.67068 | 10.06996 | 1201 ft | 144 kts | 236° |
| 2026-04-22 17:49 | 53.66413 | 10.05674 | 988 ft | 148 kts | 237° |
| 2026-04-22 17:49 | 53.65761 | 10.04348 | 772 ft | 147 kts | 236° |
| 2026-04-22 17:50 | 53.65122 | 10.03074 | 545 ft | 137 kts | 234° |
| 2026-04-22 17:50 | 53.64525 | 10.01854 | 314 ft | 133 kts | 233° |
| 2026-04-22 17:50 | 53.63909 | 10.00602 | 152 ft | 140 kts | 237° |
| 2026-04-22 17:50 | 53.63323 | 9.99405 | 45 ft | 115 kts | 238° |
| 2026-04-22 17:51 | 53.62922 | 9.98549 | 41 ft | 71 kts | 231° |
| 2026-04-22 17:51 | 53.62744 | 9.98202 | 42 ft | 16 kts | 226° |
| 2026-04-22 17:51 | 53.62635 | 9.97974 | 40 ft | 33 kts | 233° |
| 2026-04-22 17:51 | 53.62476 | 9.97795 | 38 ft | 27 kts | 165° |